createdAt,value
2023-02-28T00:00:39.991Z,8.34
2023-02-28T00:03:07.170Z,8.42
2023-02-28T00:05:34.458Z,8.41
2023-02-28T00:08:01.444Z,8.46
2023-02-28T00:10:30.908Z,8.52
2023-02-28T00:13:02.951Z,8.59
2023-02-28T00:15:29.785Z,8.64
2023-02-28T00:17:56.553Z,8.73
2023-02-28T00:20:24.060Z,8.77
2023-02-28T00:22:53.132Z,8.76
2023-02-28T00:25:22.156Z,8.74
2023-02-28T00:27:49.784Z,8.77
2023-02-28T00:30:22.084Z,8.77
2023-02-28T00:32:49.563Z,8.76
2023-02-28T00:35:17.121Z,8.75
2023-02-28T00:37:44.308Z,8.72
2023-02-28T00:40:13.066Z,8.75
2023-02-28T00:42:40.695Z,8.68
2023-02-28T00:45:09.397Z,8.43
2023-02-28T00:47:38.691Z,8.47
2023-02-28T00:50:06.460Z,8.44
2023-02-28T00:52:33.237Z,8.41
2023-02-28T00:55:00.142Z,8.00
2023-02-28T00:57:27.412Z,7.97
2023-02-28T00:59:56.844Z,8.03
2023-02-28T01:02:24.291Z,8.15
2023-02-28T01:04:53.356Z,8.22
2023-02-28T01:07:20.222Z,8.25
2023-02-28T01:09:47.079Z,8.31
2023-02-28T01:12:13.894Z,8.31
2023-02-28T01:14:40.689Z,8.15
2023-02-28T01:17:08.009Z,8.06
2023-02-28T01:19:35.544Z,8.10
2023-02-28T01:22:04.542Z,8.08
2023-02-28T01:24:33.221Z,8.08
2023-02-28T01:27:00.975Z,8.03
2023-02-28T01:29:27.817Z,7.97
2023-02-28T01:31:54.757Z,7.83
2023-02-28T01:34:21.547Z,7.94
2023-02-28T01:36:48.280Z,7.84
2023-02-28T01:39:15.368Z,7.82
2023-02-28T01:41:42.574Z,7.84
2023-02-28T01:44:46.953Z,7.83
2023-02-28T01:47:14.142Z,7.98
2023-02-28T01:49:40.947Z,7.86
2023-02-28T01:52:08.165Z,7.85
2023-02-28T01:54:36.052Z,7.86
2023-02-28T01:57:17.826Z,7.67
2023-02-28T02:00:02.045Z,7.78
2023-02-28T02:02:30.260Z,7.84
2023-02-28T02:05:05.854Z,7.93
2023-02-28T02:07:38.873Z,7.94
2023-02-28T02:10:22.811Z,7.90
2023-02-28T02:13:05.737Z,7.93
2023-02-28T02:15:40.875Z,8.00
2023-02-28T02:18:36.604Z,8.07
2023-02-28T02:21:28.304Z,8.00
2023-02-28T02:24:23.004Z,8.00
2023-02-28T02:27:24.699Z,8.07
2023-02-28T02:30:13.153Z,8.05
2023-02-28T02:32:45.640Z,8.17
2023-02-28T02:35:24.310Z,8.25
2023-02-28T02:38:02.945Z,8.16
2023-02-28T02:40:39.033Z,8.20
2023-02-28T02:43:08.731Z,8.24
2023-02-28T02:45:43.244Z,8.34
2023-02-28T02:48:14.764Z,8.32
2023-02-28T02:50:47.215Z,8.48
2023-02-28T02:53:16.700Z,8.38
2023-02-28T02:55:48.532Z,8.36
2023-02-28T02:58:19.971Z,8.40
2023-02-28T03:00:54.875Z,8.41
2023-02-28T03:03:29.720Z,8.45
2023-02-28T03:06:04.147Z,8.46
2023-02-28T03:08:36.876Z,8.52
2023-02-28T03:11:09.744Z,8.47
2023-02-28T03:13:52.151Z,8.58
2023-02-28T03:16:58.223Z,8.58
2023-02-28T03:20:08.425Z,8.56
2023-02-28T03:23:29.009Z,8.24
2023-02-28T03:26:18.412Z,8.07
2023-02-28T03:28:57.947Z,8.18
2023-02-28T03:31:28.726Z,8.09
2023-02-28T03:34:07.588Z,8.16
2023-02-28T03:36:44.658Z,8.15
2023-02-28T03:39:43.983Z,8.08
2023-02-28T03:42:16.474Z,8.10
2023-02-28T03:44:55.624Z,7.99
2023-02-28T03:47:28.906Z,8.13
2023-02-28T03:50:02.604Z,8.09
2023-02-28T03:52:36.354Z,8.06
2023-02-28T03:55:10.740Z,8.00
2023-02-28T03:57:51.413Z,7.98
2023-02-28T04:00:27.540Z,8.12
2023-02-28T04:02:54.972Z,8.12
2023-02-28T04:05:22.768Z,8.02
2023-02-28T04:07:50.017Z,8.00
2023-02-28T04:10:17.848Z,7.97
2023-02-28T04:12:44.590Z,8.09
2023-02-28T04:15:12.374Z,7.94
2023-02-28T04:17:39.270Z,7.90
2023-02-28T04:20:10.529Z,7.96
2023-02-28T04:22:38.368Z,8.03
2023-02-28T04:25:06.736Z,7.95
2023-02-28T04:27:33.778Z,7.86
2023-02-28T04:30:00.779Z,8.02
2023-02-28T04:32:27.541Z,8.03
2023-02-28T04:34:54.380Z,8.07
2023-02-28T04:37:21.481Z,8.10
2023-02-28T04:39:48.184Z,8.11
2023-02-28T04:42:15.512Z,8.12
2023-02-28T04:44:42.421Z,7.95
2023-02-28T04:47:09.174Z,7.95
2023-02-28T04:49:35.915Z,7.78
2023-02-28T04:52:02.959Z,7.94
2023-02-28T04:54:30.193Z,7.77
2023-02-28T04:56:57.119Z,7.90
2023-02-28T04:59:23.946Z,7.72
2023-02-28T05:01:50.707Z,7.71
2023-02-28T05:04:17.478Z,7.73
2023-02-28T05:06:44.452Z,7.58
2023-02-28T05:09:14.136Z,7.63
2023-02-28T05:11:41.615Z,7.74
2023-02-28T05:14:12.896Z,7.82
2023-02-28T05:16:40.381Z,7.79
2023-02-28T05:19:07.146Z,7.79
2023-02-28T05:21:42.590Z,7.72
2023-02-28T05:24:13.057Z,7.72
2023-02-28T05:26:42.465Z,7.63
2023-02-28T05:29:10.336Z,7.61
2023-02-28T05:31:37.468Z,7.57
2023-02-28T05:34:07.391Z,7.66
2023-02-28T05:36:34.296Z,7.60
2023-02-28T05:39:01.009Z,7.50
2023-02-28T05:41:28.374Z,7.47
2023-02-28T05:43:55.416Z,7.36
2023-02-28T05:46:22.400Z,7.42
2023-02-28T05:48:49.898Z,7.41
2023-02-28T05:51:17.023Z,7.37
2023-02-28T05:53:43.892Z,7.35
2023-02-28T05:56:10.861Z,7.39
2023-02-28T05:58:37.617Z,7.42
2023-02-28T06:01:32.820Z,7.42
2023-02-28T06:04:01.671Z,7.41
2023-02-28T06:06:28.634Z,7.35
2023-02-28T06:09:06.818Z,7.41
2023-02-28T06:11:34.413Z,7.43
2023-02-28T06:14:02.300Z,7.37
2023-02-28T06:16:30.425Z,7.52
2023-02-28T06:19:01.758Z,7.56
2023-02-28T06:21:29.830Z,7.62
2023-02-28T06:23:58.737Z,7.59
2023-02-28T06:26:26.071Z,7.65
2023-02-28T06:28:53.074Z,7.67
2023-02-28T06:31:20.090Z,7.52
2023-02-28T06:33:47.668Z,7.71
2023-02-28T06:36:16.804Z,7.70
2023-02-28T06:38:44.441Z,7.70
2023-02-28T06:41:12.353Z,7.62
2023-02-28T06:43:43.229Z,7.75
2023-02-28T06:46:13.420Z,7.74
2023-02-28T06:48:40.509Z,7.76
2023-02-28T06:51:10.811Z,7.80
2023-02-28T06:53:38.072Z,7.70
2023-02-28T06:56:09.778Z,7.66
2023-02-28T06:58:37.141Z,7.61
2023-02-28T07:01:04.776Z,7.57
2023-02-28T07:03:34.354Z,7.63
2023-02-28T07:06:02.075Z,7.54
2023-02-28T07:08:28.893Z,7.53
2023-02-28T07:10:56.983Z,7.58
2023-02-28T07:13:24.349Z,7.55
2023-02-28T07:15:55.658Z,7.62
2023-02-28T07:18:22.869Z,7.43
2023-02-28T07:20:49.688Z,7.39
2023-02-28T07:23:16.988Z,7.37
2023-02-28T07:25:43.736Z,7.32
2023-02-28T07:28:10.562Z,7.44
2023-02-28T07:30:37.439Z,7.43
2023-02-28T07:33:04.920Z,7.31
2023-02-28T07:35:32.056Z,7.28
2023-02-28T07:38:00.199Z,7.37
2023-02-28T07:40:27.507Z,7.30
2023-02-28T07:42:54.342Z,7.39
2023-02-28T07:45:22.083Z,7.34
2023-02-28T07:47:51.430Z,7.32
2023-02-28T07:50:18.423Z,7.39
2023-02-28T07:52:45.339Z,7.40
2023-02-28T07:55:12.192Z,7.26
2023-02-28T07:57:38.881Z,7.28
2023-02-28T08:00:07.182Z,7.36
2023-02-28T08:02:38.409Z,7.32
2023-02-28T08:05:06.575Z,7.32
2023-02-28T08:07:34.423Z,7.32
2023-02-28T08:10:01.230Z,7.37
2023-02-28T08:12:28.152Z,7.24
2023-02-28T08:14:54.870Z,7.29
2023-02-28T08:17:21.702Z,7.26
2023-02-28T08:19:48.599Z,7.45
2023-02-28T08:22:15.484Z,7.30
2023-02-28T08:24:43.853Z,7.45
2023-02-28T08:27:11.431Z,7.20
2023-02-28T08:29:39.384Z,7.15
2023-02-28T08:32:14.487Z,7.27
2023-02-28T08:34:48.189Z,7.33
2023-02-28T08:37:14.991Z,7.47
2023-02-28T08:39:41.850Z,7.53
2023-02-28T08:42:08.686Z,7.56
2023-02-28T08:44:35.630Z,7.60
2023-02-28T08:47:02.364Z,7.70
2023-02-28T08:49:29.632Z,7.60
2023-02-28T08:51:58.212Z,7.69
2023-02-28T08:54:25.498Z,7.83
2023-02-28T08:56:52.325Z,7.93
2023-02-28T08:59:19.145Z,8.00
2023-02-28T09:01:46.029Z,8.05
2023-02-28T09:04:14.489Z,8.17
2023-02-28T09:06:45.452Z,8.01
2023-02-28T09:09:12.408Z,8.10
2023-02-28T09:11:39.362Z,8.26
2023-02-28T09:14:06.114Z,8.30
2023-02-28T09:16:34.826Z,8.27
2023-02-28T09:19:02.673Z,8.15
2023-02-28T09:21:29.854Z,8.36
2023-02-28T09:23:56.899Z,8.45
2023-02-28T09:26:26.411Z,8.59
2023-02-28T09:28:55.560Z,8.57
2023-02-28T09:31:26.094Z,8.51
2023-02-28T09:33:55.118Z,8.55
2023-02-28T09:36:28.945Z,8.55
2023-02-28T09:38:58.439Z,8.62
2023-02-28T09:41:32.013Z,8.50
2023-02-28T09:44:03.830Z,8.58
2023-02-28T09:46:44.214Z,8.66
2023-02-28T09:49:23.703Z,8.68
2023-02-28T09:52:10.136Z,8.80
2023-02-28T09:54:37.819Z,8.90
2023-02-28T09:57:41.195Z,9.02
2023-02-28T10:00:20.367Z,9.09
2023-02-28T10:02:55.799Z,9.20
2023-02-28T10:05:39.531Z,9.20
2023-02-28T10:08:22.117Z,9.24
2023-02-28T10:10:56.795Z,9.27
2023-02-28T10:13:41.570Z,9.18
2023-02-28T10:16:34.884Z,9.24
2023-02-28T10:19:21.196Z,9.13
2023-02-28T10:22:04.613Z,9.30
2023-02-28T10:24:34.387Z,9.31
2023-02-28T10:27:19.804Z,9.33
2023-02-28T10:29:54.516Z,9.45
2023-02-28T10:32:25.520Z,9.47
2023-02-28T10:35:00.563Z,9.82
2023-02-28T10:37:28.523Z,10.09
2023-02-28T10:39:55.382Z,10.41
2023-02-28T10:42:27.014Z,10.60
2023-02-28T10:45:16.774Z,10.78
2023-02-28T10:47:57.813Z,10.94
2023-02-28T10:50:30.696Z,11.13
2023-02-28T10:53:11.527Z,11.25
2023-02-28T10:55:38.615Z,11.11
2023-02-28T10:58:22.481Z,11.32
2023-02-28T11:00:49.478Z,11.20
2023-02-28T11:03:26.423Z,11.23
2023-02-28T11:05:53.255Z,11.33
2023-02-28T11:08:20.025Z,11.30
2023-02-28T11:10:59.137Z,11.32
2023-02-28T11:13:31.737Z,11.38
2023-02-28T11:16:01.648Z,11.34
2023-02-28T11:18:41.510Z,11.59
2023-02-28T11:21:10.342Z,11.58
2023-02-28T11:23:41.647Z,11.59
2023-02-28T11:26:12.099Z,11.53
2023-02-28T11:28:43.070Z,11.68
2023-02-28T11:31:12.940Z,11.82
2023-02-28T11:33:52.281Z,11.83
2023-02-28T11:36:25.752Z,11.72
2023-02-28T11:38:54.847Z,11.76
2023-02-28T11:41:46.393Z,11.82
2023-02-28T11:44:15.838Z,11.92
2023-02-28T11:46:56.163Z,12.06
2023-02-28T11:49:36.788Z,12.04
2023-02-28T11:52:09.734Z,12.18
2023-02-28T11:54:57.949Z,12.17
2023-02-28T11:57:33.450Z,12.17
2023-02-28T12:00:09.235Z,12.20
2023-02-28T12:03:15.724Z,12.23
2023-02-28T12:05:47.231Z,12.31
2023-02-28T12:08:16.856Z,12.22
2023-02-28T12:11:00.247Z,12.17
2023-02-28T12:13:38.979Z,12.24
2023-02-28T12:16:31.283Z,12.22
2023-02-28T12:19:07.334Z,12.39
2023-02-28T12:22:07.689Z,12.52
2023-02-28T12:25:21.774Z,12.59
2023-02-28T12:27:50.112Z,12.74
2023-02-28T12:30:33.792Z,12.76
2023-02-28T12:33:17.918Z,12.82
2023-02-28T12:35:44.676Z,12.75
2023-02-28T12:38:14.271Z,12.75
2023-02-28T12:41:05.093Z,12.57
2023-02-28T12:43:51.271Z,12.45
2023-02-28T12:46:26.476Z,12.51
2023-02-28T12:49:13.138Z,12.89
2023-02-28T12:51:40.732Z,12.99
2023-02-28T12:54:35.188Z,13.19
2023-02-28T12:57:14.926Z,13.24
2023-02-28T12:59:55.271Z,13.26
2023-02-28T13:02:34.251Z,13.28
2023-02-28T13:05:06.824Z,13.39
2023-02-28T13:08:03.194Z,13.32
2023-02-28T13:11:00.098Z,13.71
2023-02-28T13:13:30.849Z,13.86
2023-02-28T13:16:00.926Z,14.07
2023-02-28T13:18:44.732Z,14.12
2023-02-28T13:21:28.607Z,14.23
2023-02-28T13:24:03.704Z,14.35
2023-02-28T13:26:39.332Z,14.27
2023-02-28T13:29:12.160Z,14.10
2023-02-28T13:32:07.018Z,14.50
2023-02-28T13:34:34.524Z,14.49
2023-02-28T13:37:35.825Z,14.79
2023-02-28T13:40:11.437Z,14.64
2023-02-28T13:42:50.668Z,14.97
2023-02-28T13:45:30.911Z,14.97
2023-02-28T13:48:04.633Z,15.06
2023-02-28T13:50:38.830Z,14.87
2023-02-28T13:53:28.738Z,14.90
2023-02-28T13:56:05.509Z,15.02
2023-02-28T13:58:58.292Z,14.96
2023-02-28T14:01:44.550Z,15.15
2023-02-28T14:04:40.643Z,15.37
2023-02-28T14:07:09.677Z,15.29
2023-02-28T14:09:45.980Z,15.19
2023-02-28T14:12:50.150Z,15.24
2023-02-28T14:15:37.894Z,15.09
2023-02-28T14:18:15.479Z,15.09
2023-02-28T14:20:44.705Z,15.28
2023-02-28T14:23:37.414Z,15.35
2023-02-28T14:26:26.753Z,15.32
2023-02-28T14:29:23.397Z,15.45
2023-02-28T14:32:02.834Z,15.59
2023-02-28T14:34:51.909Z,15.69
2023-02-28T14:37:25.508Z,15.77
2023-02-28T14:39:52.561Z,15.68
2023-02-28T14:42:42.640Z,15.95
2023-02-28T14:45:19.667Z,15.81
2023-02-28T14:47:46.700Z,15.62
2023-02-28T14:50:39.326Z,15.51
2023-02-28T14:53:16.528Z,15.33
2023-02-28T14:55:47.120Z,15.31
2023-02-28T14:58:31.927Z,15.20
2023-02-28T15:01:03.586Z,14.94
2023-02-28T15:03:39.078Z,14.98
2023-02-28T15:06:18.846Z,15.09
2023-02-28T15:08:46.541Z,15.13
2023-02-28T15:11:20.212Z,14.94
2023-02-28T15:13:58.153Z,15.13
2023-02-28T15:16:33.324Z,15.17
2023-02-28T15:19:14.104Z,15.17
2023-02-28T15:21:46.068Z,15.26
2023-02-28T15:24:15.761Z,15.24
2023-02-28T15:26:47.011Z,15.23
2023-02-28T15:29:21.475Z,15.10
2023-02-28T15:31:58.451Z,15.32
2023-02-28T15:34:42.306Z,15.30
2023-02-28T15:37:31.923Z,15.32
2023-02-28T15:40:06.501Z,15.48
2023-02-28T15:42:33.349Z,15.51
2023-02-28T15:45:00.840Z,15.49
2023-02-28T15:47:30.282Z,15.49
2023-02-28T15:50:05.205Z,15.55
2023-02-28T15:52:41.723Z,15.55
2023-02-28T15:55:22.669Z,15.61
2023-02-28T15:57:54.158Z,15.69
2023-02-28T16:00:24.380Z,15.70
2023-02-28T16:02:52.229Z,15.72
2023-02-28T16:05:28.925Z,15.76
2023-02-28T16:07:59.664Z,15.83
2023-02-28T16:10:28.651Z,15.83
2023-02-28T16:12:57.081Z,15.88
2023-02-28T16:15:27.171Z,15.83
2023-02-28T16:17:55.172Z,15.77
2023-02-28T16:20:25.121Z,15.53
2023-02-28T16:22:52.332Z,15.59
2023-02-28T16:25:24.113Z,15.59
2023-02-28T16:27:54.930Z,15.66
2023-02-28T16:30:25.937Z,15.77
2023-02-28T16:32:55.234Z,15.77
2023-02-28T16:35:22.917Z,15.77
2023-02-28T16:37:52.212Z,15.70
2023-02-28T16:40:22.467Z,15.68
2023-02-28T16:42:51.531Z,15.69
2023-02-28T16:45:24.799Z,15.62
2023-02-28T16:47:51.595Z,15.58
2023-02-28T16:50:21.287Z,15.55
2023-02-28T16:52:49.037Z,15.50
2023-02-28T16:55:16.547Z,15.41
2023-02-28T16:57:44.109Z,15.36
2023-02-28T17:00:14.166Z,15.39
2023-02-28T17:02:42.718Z,15.39
2023-02-28T17:05:12.979Z,15.40
2023-02-28T17:07:40.770Z,15.39
2023-02-28T17:10:27.604Z,15.37
2023-02-28T17:12:58.406Z,15.33
2023-02-28T17:15:30.660Z,15.29
2023-02-28T17:17:58.466Z,15.28
2023-02-28T17:20:25.749Z,15.23
2023-02-28T17:22:52.537Z,15.17
2023-02-28T17:25:19.820Z,15.13
2023-02-28T17:27:46.654Z,15.09
2023-02-28T17:30:20.858Z,15.03
2023-02-28T17:32:47.935Z,15.02
2023-02-28T17:35:14.994Z,14.97
2023-02-28T17:37:42.768Z,14.95
2023-02-28T17:40:23.087Z,14.91
2023-02-28T17:42:50.285Z,14.87
2023-02-28T17:45:17.178Z,14.85
2023-02-28T17:47:47.975Z,14.82
2023-02-28T17:50:17.927Z,14.77
2023-02-28T17:52:44.659Z,14.75
2023-02-28T17:55:12.654Z,14.62
2023-02-28T17:57:39.802Z,14.54
2023-02-28T18:00:07.787Z,14.45
2023-02-28T18:02:38.410Z,14.36
2023-02-28T18:05:05.770Z,14.30
2023-02-28T18:07:32.628Z,14.33
2023-02-28T18:09:59.358Z,14.26
2023-02-28T18:12:26.502Z,14.17
2023-02-28T18:14:53.252Z,14.10
2023-02-28T18:17:19.988Z,14.12
2023-02-28T18:19:46.699Z,14.08
2023-02-28T18:22:13.460Z,14.07
2023-02-28T18:24:41.007Z,14.03
2023-02-28T18:27:07.819Z,13.95
2023-02-28T18:29:34.679Z,13.85
2023-02-28T18:32:02.440Z,13.88
2023-02-28T18:34:30.652Z,13.86
2023-02-28T18:36:57.953Z,13.88
2023-02-28T18:39:24.711Z,13.79
2023-02-28T18:41:51.474Z,13.71
2023-02-28T18:44:21.133Z,13.77
2023-02-28T18:46:49.729Z,13.73
2023-02-28T18:49:17.379Z,13.66
2023-02-28T18:51:45.541Z,13.67
2023-02-28T18:54:14.254Z,13.63
2023-02-28T18:56:41.261Z,13.55
2023-02-28T18:59:08.071Z,13.57
2023-02-28T19:01:35.115Z,13.50
2023-02-28T19:04:03.657Z,13.46
2023-02-28T19:06:32.876Z,13.46
2023-02-28T19:09:03.818Z,13.44
2023-02-28T19:11:31.195Z,13.37
2023-02-28T19:13:58.411Z,13.36
2023-02-28T19:16:25.336Z,13.24
2023-02-28T19:18:52.289Z,13.18
2023-02-28T19:21:21.480Z,13.10
2023-02-28T19:23:48.515Z,13.03
2023-02-28T19:26:21.504Z,12.90
2023-02-28T19:28:49.022Z,12.64
2023-02-28T19:31:24.405Z,12.67
2023-02-28T19:33:54.300Z,12.63
2023-02-28T19:36:22.051Z,12.64
2023-02-28T19:38:49.189Z,12.55
2023-02-28T19:41:17.238Z,12.56
2023-02-28T19:43:44.430Z,12.60
2023-02-28T19:46:12.074Z,12.29
2023-02-28T19:48:39.416Z,12.19
2023-02-28T19:51:09.754Z,12.23
2023-02-28T19:53:38.058Z,12.19
2023-02-28T19:56:06.037Z,12.18
2023-02-28T19:58:34.171Z,12.17
2023-02-28T20:01:13.458Z,12.07
2023-02-28T20:03:40.651Z,12.04
2023-02-28T20:06:10.374Z,11.99
2023-02-28T20:08:38.537Z,11.98
2023-02-28T20:11:11.570Z,12.01
2023-02-28T20:13:38.867Z,12.03
2023-02-28T20:16:09.640Z,11.70
2023-02-28T20:18:38.138Z,11.65
2023-02-28T20:21:05.416Z,11.63
2023-02-28T20:23:32.223Z,11.53
2023-02-28T20:26:02.889Z,11.48
2023-02-28T20:28:29.709Z,11.33
2023-02-28T20:30:56.769Z,11.47
2023-02-28T20:33:23.776Z,11.29
2023-02-28T20:35:52.854Z,11.15
2023-02-28T20:38:20.282Z,11.20
2023-02-28T20:40:47.088Z,11.14
2023-02-28T20:43:13.859Z,10.92
2023-02-28T20:45:40.660Z,10.96
2023-02-28T20:48:07.545Z,10.97
2023-02-28T20:50:34.346Z,10.84
2023-02-28T20:53:01.071Z,10.80
2023-02-28T20:55:27.859Z,10.56
2023-02-28T20:57:55.130Z,10.55
2023-02-28T21:00:22.667Z,10.60
2023-02-28T21:02:49.416Z,10.47
2023-02-28T21:05:17.124Z,10.21
2023-02-28T21:07:43.837Z,10.22
2023-02-28T21:10:11.309Z,10.38
2023-02-28T21:12:38.079Z,10.38
2023-02-28T21:15:05.226Z,10.40
2023-02-28T21:17:31.968Z,10.32
2023-02-28T21:19:58.777Z,10.11
2023-02-28T21:22:25.552Z,10.27
2023-02-28T21:24:52.331Z,10.01
2023-02-28T21:27:19.153Z,10.03
2023-02-28T21:29:45.954Z,9.94
2023-02-28T21:32:14.600Z,9.81
2023-02-28T21:34:41.829Z,9.76
2023-02-28T21:37:08.695Z,9.89
2023-02-28T21:39:35.854Z,9.71
2023-02-28T21:42:04.192Z,9.71
2023-02-28T21:44:32.434Z,9.41
2023-02-28T21:47:02.185Z,9.37
2023-02-28T21:49:29.783Z,9.36
2023-02-28T21:51:57.692Z,9.29
2023-02-28T21:54:25.136Z,9.35
2023-02-28T21:56:52.197Z,9.21
2023-02-28T21:59:19.547Z,9.12
2023-02-28T22:01:48.646Z,9.14
2023-02-28T22:04:23.419Z,9.03
2023-02-28T22:06:53.021Z,9.16
2023-02-28T22:09:20.276Z,9.18
2023-02-28T22:11:47.432Z,9.09
2023-02-28T22:14:14.788Z,9.24
2023-02-28T22:16:51.465Z,9.18
2023-02-28T22:19:20.866Z,9.04
2023-02-28T22:21:48.233Z,9.01
2023-02-28T22:24:17.822Z,8.96
2023-02-28T22:26:45.173Z,9.18
2023-02-28T22:29:11.961Z,9.15
2023-02-28T22:31:38.875Z,9.16
2023-02-28T22:34:11.080Z,9.06
2023-02-28T22:36:37.780Z,9.14
2023-02-28T22:39:05.107Z,9.01
2023-02-28T22:41:32.511Z,9.01
2023-02-28T22:44:01.944Z,8.89
2023-02-28T22:46:31.307Z,9.01
2023-02-28T22:48:59.599Z,9.09
2023-02-28T22:51:27.915Z,8.96
2023-02-28T22:53:56.346Z,8.92
2023-02-28T22:56:25.859Z,9.12
2023-02-28T22:58:55.092Z,9.03
2023-02-28T23:01:24.387Z,9.16
2023-02-28T23:03:51.896Z,9.06
2023-02-28T23:06:31.368Z,9.19
2023-02-28T23:09:00.890Z,9.06
2023-02-28T23:11:31.516Z,9.08
2023-02-28T23:13:58.810Z,8.92
2023-02-28T23:16:31.626Z,9.08
2023-02-28T23:19:00.246Z,9.06
2023-02-28T23:21:28.041Z,8.89
2023-02-28T23:23:55.418Z,9.00
2023-02-28T23:26:22.642Z,8.96
2023-02-28T23:28:49.710Z,9.07
2023-02-28T23:31:16.560Z,8.98
2023-02-28T23:33:43.406Z,9.00
2023-02-28T23:36:11.915Z,9.10
2023-02-28T23:38:39.993Z,8.92
2023-02-28T23:41:11.451Z,8.92
2023-02-28T23:43:40.473Z,9.05
2023-02-28T23:46:08.482Z,8.94
2023-02-28T23:48:35.430Z,8.89
2023-02-28T23:51:08.357Z,8.92
2023-02-28T23:53:40.755Z,8.78
2023-02-28T23:56:09.848Z,8.74
2023-02-28T23:58:37.087Z,8.76
